createdAt,value
2023-05-03T00:02:54.157Z,70.19
2023-05-03T00:05:57.285Z,70.30
2023-05-03T00:09:00.542Z,70.33
2023-05-03T00:12:06.003Z,70.38
2023-05-03T00:15:10.542Z,70.33
2023-05-03T00:18:13.556Z,70.37
2023-05-03T00:21:16.704Z,70.37
2023-05-03T00:24:19.746Z,70.54
2023-05-03T00:27:24.324Z,70.61
2023-05-03T00:30:27.488Z,70.69
2023-05-03T00:33:30.684Z,70.75
2023-05-03T00:36:35.747Z,70.82
2023-05-03T00:39:40.280Z,70.84
2023-05-03T00:42:43.290Z,70.81
2023-05-03T00:45:47.606Z,70.85
2023-05-03T00:48:51.450Z,70.88
2023-05-03T00:51:54.756Z,71.06
2023-05-03T00:54:58.020Z,71.23
2023-05-03T00:58:01.229Z,71.28
2023-05-03T01:01:04.301Z,71.44
2023-05-03T01:04:07.513Z,71.50
2023-05-03T01:07:19.250Z,71.54
2023-05-03T01:10:42.176Z,71.71
2023-05-03T01:14:06.321Z,71.60
2023-05-03T01:17:12.700Z,71.68
2023-05-03T01:20:24.888Z,71.70
2023-05-03T01:23:32.903Z,71.85
2023-05-03T01:26:37.274Z,71.90
2023-05-03T01:29:40.498Z,72.02
2023-05-03T01:33:03.097Z,72.07
2023-05-03T01:36:16.384Z,72.08
2023-05-03T01:39:52.953Z,72.04
2023-05-03T01:42:57.147Z,72.20
2023-05-03T01:46:00.446Z,72.17
2023-05-03T01:49:03.643Z,72.12
2023-05-03T01:52:06.747Z,72.20
2023-05-03T01:55:09.855Z,72.22
2023-05-03T01:58:12.963Z,72.24
2023-05-03T02:01:16.016Z,72.35
2023-05-03T02:04:19.034Z,72.49
2023-05-03T02:07:22.006Z,72.49
2023-05-03T02:10:25.432Z,72.54
2023-05-03T02:13:31.818Z,72.58
2023-05-03T02:16:34.891Z,72.61
2023-05-03T02:19:37.940Z,72.59
2023-05-03T02:22:41.053Z,72.61
2023-05-03T02:25:44.094Z,72.58
2023-05-03T02:28:47.084Z,72.57
2023-05-03T02:31:50.042Z,72.58
2023-05-03T02:34:54.055Z,72.63
2023-05-03T02:37:57.521Z,72.64
2023-05-03T02:41:00.696Z,72.65
2023-05-03T02:44:03.871Z,72.69
2023-05-03T02:47:07.521Z,72.78
2023-05-03T02:50:12.275Z,72.77
2023-05-03T02:53:15.800Z,72.77
2023-05-03T02:56:18.941Z,72.81
2023-05-03T02:59:21.959Z,72.77
2023-05-03T03:02:25.149Z,72.73
2023-05-03T03:05:28.144Z,72.81
2023-05-03T03:08:31.258Z,72.78
2023-05-03T03:11:35.348Z,72.81
2023-05-03T03:14:38.631Z,72.87
2023-05-03T03:17:41.806Z,72.93
2023-05-03T03:20:45.425Z,72.98
2023-05-03T03:23:49.065Z,73.01
2023-05-03T03:26:52.110Z,73.06
2023-05-03T03:29:55.451Z,73.00
2023-05-03T03:32:58.479Z,73.05
2023-05-03T03:36:07.803Z,73.01
2023-05-03T03:39:11.578Z,73.05
2023-05-03T03:42:19.122Z,73.01
2023-05-03T03:45:23.779Z,72.95
2023-05-03T03:48:26.937Z,72.90
2023-05-03T03:51:30.123Z,72.95
2023-05-03T03:54:35.818Z,72.84
2023-05-03T03:57:39.222Z,72.78
2023-05-03T04:00:42.850Z,72.56
2023-05-03T04:03:48.181Z,72.49
2023-05-03T04:06:51.713Z,72.35
2023-05-03T04:09:56.670Z,72.26
2023-05-03T04:13:00.839Z,72.22
2023-05-03T04:16:06.351Z,72.26
2023-05-03T04:19:09.979Z,72.40
2023-05-03T04:22:14.536Z,72.48
2023-05-03T04:25:18.303Z,72.48
2023-05-03T04:28:27.210Z,72.50
2023-05-03T04:31:30.872Z,72.54
2023-05-03T04:34:34.099Z,72.49
2023-05-03T04:37:40.137Z,72.39
2023-05-03T04:40:43.486Z,72.33
2023-05-03T04:43:46.687Z,72.32
2023-05-03T04:46:51.144Z,72.13
2023-05-03T04:49:54.597Z,71.94
2023-05-03T04:52:58.345Z,71.88
2023-05-03T04:56:01.615Z,71.79
2023-05-03T04:59:05.694Z,71.79
2023-05-03T05:02:08.981Z,71.70
2023-05-03T05:05:12.244Z,71.54
2023-05-03T05:08:16.102Z,71.49
2023-05-03T05:11:24.182Z,71.58
2023-05-03T05:14:30.554Z,71.51
2023-05-03T05:17:34.024Z,71.52
2023-05-03T05:20:37.667Z,71.41
2023-05-03T05:23:40.975Z,71.50
2023-05-03T05:26:44.502Z,71.49
2023-05-03T05:29:48.483Z,71.46
2023-05-03T05:32:51.589Z,71.40
2023-05-03T05:35:55.678Z,71.43
2023-05-03T05:38:59.104Z,71.38
2023-05-03T05:42:02.887Z,71.43
2023-05-03T05:45:08.141Z,71.27
2023-05-03T05:48:11.606Z,71.14
2023-05-03T05:51:14.884Z,71.08
2023-05-03T05:54:18.123Z,71.06
2023-05-03T05:57:21.536Z,71.03
2023-05-03T06:00:25.212Z,70.74
2023-05-03T06:03:28.404Z,70.62
2023-05-03T06:06:31.725Z,70.26
2023-05-03T06:09:34.883Z,70.26
2023-05-03T06:12:39.561Z,70.16
2023-05-03T06:15:47.127Z,70.27
2023-05-03T06:18:50.798Z,70.13
2023-05-03T06:21:53.900Z,70.12
2023-05-03T06:24:57.975Z,69.97
2023-05-03T06:28:01.336Z,70.03
2023-05-03T06:31:07.324Z,69.81
2023-05-03T06:34:10.623Z,69.75
2023-05-03T06:37:15.454Z,69.43
2023-05-03T06:40:18.801Z,69.33
2023-05-03T06:43:22.313Z,69.31
2023-05-03T06:46:29.088Z,69.06
2023-05-03T06:49:32.749Z,68.84
2023-05-03T06:52:35.858Z,68.45
2023-05-03T06:55:38.899Z,68.09
2023-05-03T06:58:41.827Z,67.91
2023-05-03T07:01:44.893Z,67.62
2023-05-03T07:04:47.964Z,67.42
2023-05-03T07:07:51.126Z,67.27
2023-05-03T07:10:54.219Z,66.92
2023-05-03T07:13:57.260Z,66.63
2023-05-03T07:17:00.375Z,66.54
2023-05-03T07:20:04.567Z,66.63
2023-05-03T07:23:07.777Z,66.25
2023-05-03T07:26:10.879Z,66.05
2023-05-03T07:29:14.461Z,65.91
2023-05-03T07:32:17.939Z,66.14
2023-05-03T07:35:21.149Z,66.06
2023-05-03T07:38:24.131Z,66.07
2023-05-03T07:41:27.380Z,66.05
2023-05-03T07:44:31.121Z,66.12
2023-05-03T07:47:37.838Z,66.11
2023-05-03T07:50:44.627Z,66.10
2023-05-03T07:53:48.555Z,65.92
2023-05-03T07:56:52.381Z,65.94
2023-05-03T07:59:56.628Z,65.57
2023-05-03T08:03:01.612Z,65.37
2023-05-03T08:06:05.780Z,65.12
2023-05-03T08:09:09.340Z,64.88
2023-05-03T08:12:12.540Z,64.47
2023-05-03T08:15:15.580Z,64.01
2023-05-03T08:18:19.242Z,63.71
2023-05-03T08:21:24.866Z,63.76
2023-05-03T08:24:28.103Z,63.58
2023-05-03T08:27:31.703Z,63.71
2023-05-03T08:30:37.273Z,63.45
2023-05-03T08:33:40.430Z,63.25
2023-05-03T08:36:43.470Z,63.74
2023-05-03T08:39:47.561Z,63.10
2023-05-03T08:42:50.702Z,62.88
2023-05-03T08:45:53.784Z,62.64
2023-05-03T08:48:58.861Z,62.27
2023-05-03T08:52:02.411Z,61.86
2023-05-03T08:55:05.656Z,61.97
2023-05-03T08:58:12.964Z,61.85
2023-05-03T09:01:16.641Z,61.80
2023-05-03T09:04:19.756Z,61.78
2023-05-03T09:07:22.974Z,62.05
2023-05-03T09:10:26.223Z,61.80
2023-05-03T09:13:33.072Z,61.70
2023-05-03T09:16:36.228Z,62.03
2023-05-03T09:19:56.373Z,61.90
2023-05-03T09:22:59.549Z,61.96
2023-05-03T09:26:02.652Z,61.49
2023-05-03T09:29:05.752Z,61.13
2023-05-03T09:32:09.106Z,60.72
2023-05-03T09:35:13.777Z,60.53
2023-05-03T09:38:33.746Z,60.60
2023-05-03T09:41:36.861Z,60.02
2023-05-03T09:44:53.906Z,59.62
2023-05-03T09:47:57.809Z,59.08
2023-05-03T09:51:00.807Z,58.72
2023-05-03T09:54:04.541Z,58.97
2023-05-03T09:57:08.673Z,58.69
2023-05-03T10:00:14.513Z,58.51
2023-05-03T10:03:47.637Z,58.89
2023-05-03T10:06:51.656Z,59.68
2023-05-03T10:09:57.157Z,58.30
2023-05-03T10:13:03.181Z,57.51
2023-05-03T10:16:11.887Z,56.87
2023-05-03T10:19:21.756Z,56.39
2023-05-03T10:22:24.949Z,56.92
2023-05-03T10:25:27.910Z,56.94
2023-05-03T10:28:33.775Z,57.37
2023-05-03T10:31:48.265Z,56.86
2023-05-03T10:34:58.432Z,57.45
2023-05-03T10:38:16.816Z,57.31
2023-05-03T10:41:27.274Z,57.25
2023-05-03T10:44:54.309Z,57.58
2023-05-03T10:48:12.651Z,57.59
2023-05-03T10:51:38.894Z,57.41
2023-05-03T10:54:41.978Z,57.46
2023-05-03T10:57:46.907Z,57.09
2023-05-03T11:00:51.492Z,56.76
2023-05-03T11:04:03.897Z,56.63
2023-05-03T11:07:07.138Z,56.75
2023-05-03T11:10:17.797Z,56.98
2023-05-03T11:13:20.897Z,57.25
2023-05-03T11:16:24.507Z,57.13
2023-05-03T11:19:28.888Z,57.58
2023-05-03T11:22:32.678Z,57.15
2023-05-03T11:25:35.746Z,56.78
2023-05-03T11:28:43.236Z,56.96
2023-05-03T11:31:46.488Z,57.22
2023-05-03T11:34:49.540Z,57.30
2023-05-03T11:37:54.130Z,57.06
2023-05-03T11:40:57.636Z,57.72
2023-05-03T11:44:15.143Z,57.89
2023-05-03T11:47:21.887Z,57.69
2023-05-03T11:50:55.795Z,58.21
2023-05-03T11:54:13.031Z,58.50
2023-05-03T11:57:25.908Z,58.48
2023-05-03T12:00:30.125Z,57.58
2023-05-03T12:03:33.887Z,57.55
2023-05-03T12:06:38.455Z,57.99
2023-05-03T12:09:44.805Z,58.27
2023-05-03T12:13:02.189Z,57.41
2023-05-03T12:16:12.712Z,57.25
2023-05-03T12:19:30.907Z,57.09
2023-05-03T12:22:35.131Z,57.36
2023-05-03T12:25:39.548Z,56.94
2023-05-03T12:28:43.508Z,57.73
2023-05-03T12:31:49.186Z,57.57
2023-05-03T12:34:57.059Z,57.14
2023-05-03T12:38:03.053Z,56.78
2023-05-03T12:41:08.967Z,56.42
2023-05-03T12:44:13.305Z,56.32
2023-05-03T12:47:27.932Z,55.39
2023-05-03T12:50:32.622Z,55.71
2023-05-03T12:53:39.181Z,55.30
2023-05-03T12:56:47.568Z,54.43
2023-05-03T12:59:58.603Z,53.94
2023-05-03T13:06:13.983Z,54.10
2023-05-03T13:09:21.625Z,53.38
2023-05-03T13:12:27.408Z,53.72
2023-05-03T13:15:30.537Z,53.31
2023-05-03T13:18:33.536Z,52.49
2023-05-03T13:21:36.547Z,52.87
2023-05-03T13:24:41.296Z,52.82
2023-05-03T13:27:46.858Z,52.96
2023-05-03T13:30:49.943Z,52.66
2023-05-03T13:33:56.961Z,52.00
2023-05-03T13:37:01.513Z,51.62
2023-05-03T13:40:05.523Z,51.14
2023-05-03T13:43:08.659Z,50.96
2023-05-03T13:46:12.635Z,50.56
2023-05-03T13:49:15.993Z,50.49
2023-05-03T13:52:19.030Z,50.53
2023-05-03T13:55:22.740Z,50.86
2023-05-03T13:58:26.198Z,51.46
2023-05-03T14:01:29.584Z,50.97
2023-05-03T14:04:32.671Z,50.60
2023-05-03T14:07:35.772Z,50.83
2023-05-03T14:10:39.441Z,50.50
2023-05-03T14:13:55.393Z,49.78
2023-05-03T14:16:59.839Z,49.55
2023-05-03T14:20:06.964Z,49.56
2023-05-03T14:23:10.322Z,49.87
2023-05-03T14:26:14.201Z,49.29
2023-05-03T14:29:17.618Z,49.33
2023-05-03T14:32:23.293Z,48.90
2023-05-03T14:35:26.889Z,48.97
2023-05-03T14:38:30.063Z,48.60
2023-05-03T14:41:33.445Z,48.68
2023-05-03T14:44:37.111Z,48.96
2023-05-03T14:47:44.016Z,49.65
2023-05-03T14:50:51.569Z,50.14
2023-05-03T14:53:55.200Z,49.35
2023-05-03T14:56:58.516Z,49.05
2023-05-03T15:00:03.068Z,49.34
2023-05-03T15:03:08.471Z,49.09
2023-05-03T15:06:11.701Z,49.32
2023-05-03T15:09:15.186Z,48.95
2023-05-03T15:12:18.372Z,49.44
2023-05-03T15:15:21.808Z,49.18
2023-05-03T15:18:27.586Z,49.88
2023-05-03T15:21:30.889Z,49.83
2023-05-03T15:24:34.227Z,49.17
2023-05-03T15:27:37.305Z,48.86
2023-05-03T15:30:40.295Z,49.02
2023-05-03T15:33:44.662Z,48.56
2023-05-03T15:36:47.686Z,48.83
2023-05-03T15:39:50.859Z,48.81
2023-05-03T15:42:54.119Z,49.39
2023-05-03T15:45:57.434Z,49.30
2023-05-03T15:49:01.328Z,49.79
2023-05-03T15:52:04.915Z,49.64
2023-05-03T15:55:09.538Z,49.66
2023-05-03T15:58:12.767Z,49.92
2023-05-03T16:01:16.311Z,50.18
2023-05-03T16:04:19.296Z,49.28
2023-05-03T16:07:22.286Z,49.48
2023-05-03T16:10:26.545Z,49.75
2023-05-03T16:13:30.145Z,48.99
2023-05-03T16:16:33.250Z,49.18
2023-05-03T16:19:37.629Z,49.43
2023-05-03T16:22:40.730Z,49.21
2023-05-03T16:25:43.775Z,49.26
2023-05-03T16:28:48.154Z,48.70
2023-05-03T16:31:53.021Z,48.32
2023-05-03T16:34:56.868Z,48.73
2023-05-03T16:38:00.671Z,48.85
2023-05-03T16:41:03.713Z,49.07
2023-05-03T16:44:08.489Z,49.03
2023-05-03T16:47:11.596Z,49.33
2023-05-03T16:50:17.704Z,48.62
2023-05-03T16:53:22.127Z,48.46
2023-05-03T16:56:26.413Z,49.13
2023-05-03T16:59:29.621Z,49.29
2023-05-03T17:02:32.791Z,49.44
2023-05-03T17:05:36.015Z,49.48
2023-05-03T17:08:39.883Z,49.76
2023-05-03T17:11:42.977Z,49.70
2023-05-03T17:14:46.043Z,49.79
2023-05-03T17:17:49.116Z,49.79
2023-05-03T17:20:52.794Z,49.87
2023-05-03T17:23:55.775Z,49.78
2023-05-03T17:26:58.952Z,49.72
2023-05-03T17:30:03.568Z,50.22
2023-05-03T17:33:06.725Z,50.32
2023-05-03T17:36:09.750Z,50.34
2023-05-03T17:39:13.098Z,50.38
2023-05-03T17:42:16.339Z,50.73
2023-05-03T17:45:19.511Z,50.85
2023-05-03T17:48:22.709Z,50.93
2023-05-03T17:51:25.820Z,50.99
2023-05-03T17:54:29.537Z,51.80
2023-05-03T17:57:32.729Z,51.29
2023-05-03T18:00:35.819Z,51.45
2023-05-03T18:03:39.157Z,51.88
2023-05-03T18:06:42.161Z,52.41
2023-05-03T18:09:45.728Z,52.82
2023-05-03T18:12:48.734Z,53.31
2023-05-03T18:15:51.784Z,53.71
2023-05-03T18:18:54.941Z,53.86
2023-05-03T18:21:58.257Z,54.18
2023-05-03T18:25:03.209Z,54.57
2023-05-03T18:28:06.354Z,54.94
2023-05-03T18:31:11.419Z,55.01
2023-05-03T18:34:14.576Z,55.26
2023-05-03T18:37:17.912Z,55.35
2023-05-03T18:40:21.159Z,55.26
2023-05-03T18:43:24.846Z,55.32
2023-05-03T18:46:27.987Z,55.33
2023-05-03T18:49:31.093Z,55.38
2023-05-03T18:52:34.058Z,55.50
2023-05-03T18:55:37.397Z,55.62
2023-05-03T18:58:40.404Z,55.59
2023-05-03T19:01:43.362Z,55.62
2023-05-03T19:04:46.548Z,55.73
2023-05-03T19:07:49.667Z,55.84
2023-05-03T19:10:52.667Z,55.95
2023-05-03T19:13:55.719Z,56.05
2023-05-03T19:16:58.769Z,56.10
2023-05-03T19:20:02.090Z,56.36
2023-05-03T19:23:05.514Z,56.39
2023-05-03T19:26:08.588Z,56.41
2023-05-03T19:29:11.546Z,56.63
2023-05-03T19:32:14.655Z,56.60
2023-05-03T19:35:17.813Z,56.61
2023-05-03T19:38:20.929Z,56.70
2023-05-03T19:41:26.108Z,56.61
2023-05-03T19:44:33.380Z,56.63
2023-05-03T19:47:36.416Z,56.59
2023-05-03T19:50:39.382Z,56.79
2023-05-03T19:53:42.656Z,57.05
2023-05-03T19:56:45.800Z,57.18
2023-05-03T19:59:48.975Z,57.88
2023-05-03T20:02:52.115Z,57.59
2023-05-03T20:05:55.280Z,57.49
2023-05-03T20:08:58.345Z,57.41
2023-05-03T20:12:02.291Z,57.50
2023-05-03T20:15:06.514Z,57.45
2023-05-03T20:18:09.880Z,57.51
2023-05-03T20:21:13.911Z,58.13
2023-05-03T20:24:16.938Z,58.62
2023-05-03T20:27:19.894Z,58.92
2023-05-03T20:30:23.085Z,59.00
2023-05-03T20:33:26.491Z,59.11
2023-05-03T20:36:29.582Z,58.97
2023-05-03T20:39:34.126Z,58.83
2023-05-03T20:42:37.241Z,58.97
2023-05-03T20:45:40.320Z,59.17
2023-05-03T20:48:43.468Z,59.15
2023-05-03T20:51:47.485Z,58.88
2023-05-03T20:54:50.507Z,58.80
2023-05-03T20:57:53.537Z,58.75
2023-05-03T21:00:57.829Z,58.80
2023-05-03T21:04:02.933Z,58.79
2023-05-03T21:07:05.987Z,58.92
2023-05-03T21:10:09.548Z,59.15
2023-05-03T21:13:12.570Z,59.25
2023-05-03T21:16:15.776Z,59.34
2023-05-03T21:19:18.783Z,59.34
2023-05-03T21:22:21.888Z,59.45
2023-05-03T21:25:24.906Z,59.48
2023-05-03T21:28:30.224Z,59.40
2023-05-03T21:31:33.381Z,59.60
2023-05-03T21:34:36.448Z,59.73
2023-05-03T21:37:39.630Z,59.95
2023-05-03T21:40:42.630Z,59.95
2023-05-03T21:43:45.693Z,59.79
2023-05-03T21:46:48.748Z,59.96
2023-05-03T21:49:51.754Z,59.84
2023-05-03T21:52:54.714Z,59.80
2023-05-03T21:55:57.680Z,59.87
2023-05-03T21:59:00.656Z,59.85
2023-05-03T22:02:05.676Z,59.95
2023-05-03T22:05:09.306Z,60.06
2023-05-03T22:08:14.328Z,60.04
2023-05-03T22:11:17.672Z,59.93
2023-05-03T22:14:20.919Z,59.92
2023-05-03T22:17:24.895Z,59.92
2023-05-03T22:20:29.956Z,60.07
2023-05-03T22:23:33.147Z,59.98
2023-05-03T22:26:36.262Z,59.81
2023-05-03T22:29:39.333Z,59.79
2023-05-03T22:32:42.567Z,59.79
2023-05-03T22:35:46.006Z,59.90
2023-05-03T22:38:49.192Z,59.87
2023-05-03T22:41:52.146Z,59.98
2023-05-03T22:44:56.951Z,60.18
2023-05-03T22:48:00.523Z,60.28
2023-05-03T22:51:03.719Z,60.39
2023-05-03T22:54:06.683Z,60.27
2023-05-03T22:57:10.205Z,60.30
2023-05-03T23:00:13.650Z,60.34
2023-05-03T23:03:17.086Z,60.46
2023-05-03T23:06:20.114Z,60.54
2023-05-03T23:09:23.112Z,60.60
2023-05-03T23:12:26.101Z,60.51
2023-05-03T23:15:29.609Z,60.61
2023-05-03T23:18:32.754Z,60.56
2023-05-03T23:21:35.780Z,60.56
2023-05-03T23:24:39.674Z,60.58
2023-05-03T23:27:43.471Z,60.58
2023-05-03T23:30:46.736Z,60.49
2023-05-03T23:33:50.159Z,60.54
2023-05-03T23:36:53.292Z,60.51
2023-05-03T23:39:56.367Z,60.58
2023-05-03T23:42:59.391Z,60.60
2023-05-03T23:46:02.383Z,60.66
2023-05-03T23:49:05.737Z,60.74
2023-05-03T23:52:09.835Z,60.88
2023-05-03T23:55:12.816Z,60.84
2023-05-03T23:58:15.836Z,60.80
